PWSweather.com
Personal Weather Stations
Station Observations
TENMILE2
Watts Bar Lake, Ten Mile, TN 37880

Watts Bar LakeTen Mile, TN 37880

Lat: 35.686, Lon: -84.7068

Elevation: 767

Station Type: Davis VP2

http://www.wattsbarweather.net

Latest ConditionsUpdated 3:43:13 PM EDT Sunday, May 27, 2018
Currently Today's Max Today's Min Today's Average
Temperature 84.9°F29.4°C 84.9°F29.4°C 67.3°F19.6°C 72.1°F22.3°C
Dew Point 74.7°F23.7°C 74.7°F23.7°C 65.5°F18.6°C 68.3°F20.2°C
Winds 1.3 mph SE2.1 kmh SE 3.7 mph SE6.0 kmh SE - 1.0 mph 1.6 kmh
Wind Gusts 5.0 mph8.0 kmh 12.5 mph20.1 kmh - -
Humidity 71% 95% 69% 88%
Pressure 29.94 in1013.9 mb 30.02 in1016.6 mb 29.94 in1013.9 mb -
Precipitation - 0.17 in4.3 mm - -
Hour Temp Dew Point Humidity Winds Wind Gusts Pressure Precip Precip Rate Daily Precip Total
03:43 PM 84.9°F29.4°C 74.7°F23.7°C 71% 1.3 mph SE2.1 kmh SE 5.0 mph8.0 kmh 29.94 in1013.9 mb 0.00 in0.0 mm 0.00 in0.0 mm 0.17 in4.3 mm
03:38 PM 84.2°F29.0°C 73.2°F22.9°C 69% 1.4 mph SSE2.3 kmh SSE 6.3 mph10.1 kmh 29.94 in1013.9 mb 0.00 in0.0 mm 0.00 in0.0 mm 0.17 in4.3 mm
03:33 PM 84.1°F28.9°C 73.5°F23.1°C 70% 3.1 mph SE5.0 kmh SE 6.3 mph10.1 kmh 29.94 in1013.9 mb 0.00 in0.0 mm 0.00 in0.0 mm 0.17 in4.3 mm
03:28 PM 84.2°F29.0°C 74.4°F23.6°C 72% 1.9 mph SE3.1 kmh SE 4.0 mph6.4 kmh 29.94 in1013.9 mb 0.00 in0.0 mm 0.00 in0.0 mm 0.17 in4.3 mm
03:23 PM 83.8°F28.8°C 73.6°F23.1°C 71% 1.3 mph S2.1 kmh S 5.0 mph8.0 kmh 29.94 in1013.9 mb 0.00 in0.0 mm 0.00 in0.0 mm 0.17 in4.3 mm
03:18 PM 83.1°F28.4°C 73.8°F23.2°C 73% 1.3 mph SW2.1 kmh SW 5.0 mph8.0 kmh 29.95 in1014.2 mb 0.00 in0.0 mm 0.00 in0.0 mm 0.17 in4.3 mm
03:13 PM 83.0°F28.3°C 73.3°F22.9°C 72% 1.9 mph NE3.1 kmh NE 4.0 mph6.4 kmh 29.95 in1014.2 mb 0.00 in0.0 mm 0.00 in0.0 mm 0.17 in4.3 mm
03:08 PM 82.4°F28.0°C 72.7°F22.6°C 72% 1.3 mph SE2.1 kmh SE 4.0 mph6.4 kmh 29.95 in1014.2 mb 0.00 in0.0 mm 0.00 in0.0 mm 0.17 in4.3 mm
03:03 PM 81.9°F27.7°C 73.0°F22.8°C 74% 1.7 mph N2.7 kmh N 6.3 mph10.1 kmh 29.95 in1014.2 mb 0.00 in0.0 mm 0.00 in0.0 mm 0.17 in4.3 mm
02:58 PM 81.7°F27.6°C 72.0°F22.2°C 72% 2.3 mph NNE3.7 kmh NNE 6.3 mph10.1 kmh 29.95 in1014.2 mb 0.00 in0.0 mm 0.00 in0.0 mm 0.17 in4.3 mm
02:53 PM 82.2°F27.9°C 72.1°F22.3°C 71% 2.2 mph NNW3.5 kmh NNW 4.0 mph6.4 kmh 29.95 in1014.2 mb 0.00 in0.0 mm 0.00 in0.0 mm 0.17 in4.3 mm
02:48 PM 82.0°F27.8°C 73.1°F22.8°C 74% 1.7 mph SE2.7 kmh SE 5.0 mph8.0 kmh 29.95 in1014.2 mb 0.00 in0.0 mm 0.00 in0.0 mm 0.17 in4.3 mm
02:43 PM 81.4°F27.4°C 72.9°F22.7°C 75% 1.3 mph NE2.1 kmh NE 5.0 mph8.0 kmh 29.95 in1014.2 mb 0.00 in0.0 mm 0.00 in0.0 mm 0.17 in4.3 mm
02:37 PM 81.2°F27.3°C 73.5°F23.1°C 77% 1.3 mph N2.1 kmh N 5.0 mph8.0 kmh 29.95 in1014.2 mb 0.00 in0.0 mm 0.00 in0.0 mm 0.17 in4.3 mm
02:32 PM 80.6°F27.0°C 71.3°F21.8°C 73% 1.8 mph NNE2.9 kmh NNE 5.0 mph8.0 kmh 29.97 in1014.9 mb 0.00 in0.0 mm 0.00 in0.0 mm 0.17 in4.3 mm
02:27 PM 80.9°F27.2°C 72.4°F22.4°C 75% 1.3 mph NNE2.1 kmh NNE 3.0 mph4.8 kmh 29.97 in1014.9 mb 0.00 in0.0 mm 0.00 in0.0 mm 0.17 in4.3 mm
02:22 PM 80.7°F27.1°C 72.6°F22.6°C 76% 1.3 mph SW2.1 kmh SW 3.0 mph4.8 kmh 29.97 in1014.9 mb 0.00 in0.0 mm 0.00 in0.0 mm 0.17 in4.3 mm
02:17 PM 80.7°F27.1°C 72.6°F22.6°C 76% 1.3 mph WSW2.1 kmh WSW 3.0 mph4.8 kmh 29.97 in1014.9 mb 0.00 in0.0 mm 0.00 in0.0 mm 0.17 in4.3 mm
02:12 PM 80.6°F27.0°C 72.1°F22.3°C 75% Calm Calm 2.5 mph4.0 kmh 29.97 in1014.9 mb 0.00 in0.0 mm 0.00 in0.0 mm 0.17 in4.3 mm
02:07 PM 80.6°F27.0°C 71.7°F22.1°C 74% 1.3 mph SE2.1 kmh SE 3.0 mph4.8 kmh 29.98 in1015.2 mb 0.00 in0.0 mm 0.00 in0.0 mm 0.17 in4.3 mm
02:02 PM 81.0°F27.2°C 71.7°F22.1°C 73% 1.3 mph SSE2.1 kmh SSE 4.0 mph6.4 kmh 29.98 in1015.2 mb 0.00 in0.0 mm 0.00 in0.0 mm 0.17 in4.3 mm
01:57 PM 81.6°F27.6°C 72.3°F22.4°C 73% 1.3 mph SW2.1 kmh SW 4.0 mph6.4 kmh 29.98 in1015.2 mb 0.00 in0.0 mm 0.00 in0.0 mm 0.17 in4.3 mm
01:52 PM 81.7°F27.6°C 72.8°F22.7°C 74% 2.1 mph S3.4 kmh S 5.0 mph8.0 kmh 29.98 in1015.2 mb 0.00 in0.0 mm 0.00 in0.0 mm 0.17 in4.3 mm
01:47 PM 81.5°F27.5°C 72.6°F22.6°C 74% 1.6 mph S2.6 kmh S 5.0 mph8.0 kmh 29.98 in1015.2 mb 0.00 in0.0 mm 0.00 in0.0 mm 0.17 in4.3 mm
01:42 PM 81.5°F27.5°C 71.4°F21.9°C 71% 2.5 mph SE4.0 kmh SE 3.8 mph6.1 kmh 29.98 in1015.2 mb 0.00 in0.0 mm 0.00 in0.0 mm 0.17 in4.3 mm
01:37 PM 81.4°F27.4°C 72.1°F22.3°C 73% 1.4 mph SW2.3 kmh SW 3.0 mph4.8 kmh 29.98 in1015.2 mb 0.00 in0.0 mm 0.00 in0.0 mm 0.17 in4.3 mm
01:32 PM 81.0°F27.2°C 72.1°F22.3°C 74% 1.3 mph W2.1 kmh W 3.0 mph4.8 kmh 29.99 in1015.6 mb 0.00 in0.0 mm 0.00 in0.0 mm 0.17 in4.3 mm
01:27 PM 80.2°F26.8°C 72.1°F22.3°C 76% 1.3 mph W2.1 kmh W 5.0 mph8.0 kmh 29.99 in1015.6 mb 0.00 in0.0 mm 0.00 in0.0 mm 0.17 in4.3 mm
01:22 PM 79.7°F26.5°C 70.9°F21.6°C 74% 1.3 mph WSW2.1 kmh WSW 5.0 mph8.0 kmh 29.99 in1015.6 mb 0.00 in0.0 mm 0.00 in0.0 mm 0.17 in4.3 mm
01:17 PM 79.7°F26.5°C 70.5°F21.4°C 73% 1.5 mph NW2.4 kmh NW 5.0 mph8.0 kmh 29.99 in1015.6 mb 0.00 in0.0 mm 0.00 in0.0 mm 0.17 in4.3 mm
01:12 PM 79.7°F26.5°C 71.2°F21.8°C 75% 1.7 mph S2.7 kmh S 5.0 mph8.0 kmh 29.99 in1015.6 mb 0.00 in0.0 mm 0.00 in0.0 mm 0.17 in4.3 mm
01:07 PM 80.5°F26.9°C 71.6°F22.0°C 74% 1.4 mph SE2.3 kmh SE 3.8 mph6.1 kmh 30.00 in1015.9 mb 0.00 in0.0 mm 0.00 in0.0 mm 0.17 in4.3 mm
01:02 PM 80.6°F27.0°C 71.3°F21.8°C 73% 2.0 mph ENE3.2 kmh ENE 3.8 mph6.1 kmh 30.00 in1015.9 mb 0.00 in0.0 mm 0.00 in0.0 mm 0.17 in4.3 mm
12:57 PM 80.5°F26.9°C 71.6°F22.0°C 74% 2.3 mph NE3.7 kmh NE 5.0 mph8.0 kmh 30.00 in1015.9 mb 0.00 in0.0 mm 0.00 in0.0 mm 0.17 in4.3 mm
12:52 PM 80.5°F26.9°C 72.4°F22.4°C 76% 1.8 mph SSE2.9 kmh SSE 6.3 mph10.1 kmh 30.00 in1015.9 mb 0.00 in0.0 mm 0.00 in0.0 mm 0.17 in4.3 mm
12:47 PM 79.8°F26.6°C 72.5°F22.5°C 78% 1.6 mph ENE2.6 kmh ENE 6.3 mph10.1 kmh 30.00 in1015.9 mb 0.00 in0.0 mm 0.00 in0.0 mm 0.17 in4.3 mm
12:42 PM 79.4°F26.3°C 71.7°F22.1°C 77% 1.5 mph SSE2.4 kmh SSE 5.0 mph8.0 kmh 30.00 in1015.9 mb 0.00 in0.0 mm 0.00 in0.0 mm 0.17 in4.3 mm
12:37 PM 79.5°F26.4°C 71.4°F21.9°C 76% 1.3 mph N2.1 kmh N 4.0 mph6.4 kmh 30.00 in1015.9 mb 0.00 in0.0 mm 0.00 in0.0 mm 0.17 in4.3 mm
12:32 PM 79.1°F26.2°C 72.5°F22.5°C 80% 1.4 mph S2.3 kmh S 4.0 mph6.4 kmh 30.01 in1016.3 mb 0.00 in0.0 mm 0.00 in0.0 mm 0.17 in4.3 mm
12:27 PM 78.5°F25.8°C 72.3°F22.4°C 81% 2.3 mph SSW3.7 kmh SSW 6.3 mph10.1 kmh 30.01 in1016.3 mb 0.00 in0.0 mm 0.00 in0.0 mm 0.17 in4.3 mm
12:22 PM 78.1°F25.6°C 70.8°F21.6°C 78% 2.1 mph NNW3.4 kmh NNW 6.3 mph10.1 kmh 30.01 in1016.3 mb 0.00 in0.0 mm 0.00 in0.0 mm 0.17 in4.3 mm
12:17 PM 78.1°F25.6°C 72.2°F22.3°C 82% 1.8 mph N2.9 kmh N 6.3 mph10.1 kmh 30.01 in1016.3 mb 0.00 in0.0 mm 0.00 in0.0 mm 0.17 in4.3 mm
12:12 PM 78.4°F25.8°C 70.7°F21.5°C 77% 2.7 mph ENE4.3 kmh ENE 5.0 mph8.0 kmh 30.01 in1016.3 mb 0.00 in0.0 mm 0.00 in0.0 mm 0.17 in4.3 mm
12:07 PM 78.4°F25.8°C 71.5°F21.9°C 79% 2.1 mph E3.4 kmh E 3.8 mph6.1 kmh 30.01 in1016.3 mb 0.00 in0.0 mm 0.00 in0.0 mm 0.17 in4.3 mm
12:02 PM 77.9°F25.5°C 72.4°F22.4°C 83% 1.3 mph S2.1 kmh S 4.0 mph6.4 kmh 30.02 in1016.6 mb 0.00 in0.0 mm 0.00 in0.0 mm 0.17 in4.3 mm
11:57 AM 77.2°F25.1°C 71.4°F21.9°C 82% 1.5 mph S2.4 kmh S 5.0 mph8.0 kmh 30.01 in1016.3 mb 0.00 in0.0 mm 0.00 in0.0 mm 0.17 in4.3 mm
11:52 AM 77.1°F25.1°C 71.3°F21.8°C 82% 1.5 mph E2.4 kmh E 5.0 mph8.0 kmh 30.02 in1016.6 mb 0.00 in0.0 mm 0.00 in0.0 mm 0.17 in4.3 mm
11:47 AM 77.3°F25.2°C 71.5°F21.9°C 82% 3.7 mph SE6.0 kmh SE 5.0 mph8.0 kmh 30.01 in1016.3 mb 0.00 in0.0 mm 0.00 in0.0 mm 0.17 in4.3 mm
11:42 AM 76.5°F24.7°C 70.7°F21.5°C 82% 1.3 mph SSW2.1 kmh SSW 2.5 mph4.0 kmh 30.01 in1016.3 mb 0.00 in0.0 mm 0.00 in0.0 mm 0.17 in4.3 mm
11:37 AM 76.1°F24.5°C 70.6°F21.4°C 83% Calm Calm 2.5 mph4.0 kmh 30.01 in1016.3 mb 0.00 in0.0 mm 0.00 in0.0 mm 0.17 in4.3 mm
11:32 AM 75.8°F24.3°C 70.7°F21.5°C 84% Calm Calm 2.5 mph4.0 kmh 30.01 in1016.3 mb 0.00 in0.0 mm 0.00 in0.0 mm 0.17 in4.3 mm
11:27 AM 75.7°F24.3°C 70.2°F21.2°C 83% 1.3 mph WSW2.1 kmh WSW 1.3 mph2.1 kmh 30.02 in1016.6 mb 0.00 in0.0 mm 0.00 in0.0 mm 0.17 in4.3 mm
11:22 AM 75.6°F24.2°C 69.8°F21.0°C 82% Calm Calm 1.3 mph2.1 kmh 30.02 in1016.6 mb 0.00 in0.0 mm 0.00 in0.0 mm 0.17 in4.3 mm
11:17 AM 75.1°F23.9°C 70.3°F21.3°C 85% 1.3 mph W2.1 kmh W 1.3 mph2.1 kmh 30.01 in1016.3 mb 0.00 in0.0 mm 0.00 in0.0 mm 0.17 in4.3 mm
11:11 AM 74.3°F23.5°C 70.5°F21.4°C 88% 1.3 mph NNW2.1 kmh NNW 2.0 mph3.2 kmh 30.01 in1016.3 mb 0.00 in0.0 mm 0.00 in0.0 mm 0.17 in4.3 mm
11:07 AM 73.1°F22.8°C 69.0°F20.6°C 87% Calm Calm 3.0 mph4.8 kmh 30.01 in1016.3 mb 0.00 in0.0 mm 0.00 in0.0 mm 0.17 in4.3 mm
11:01 AM 72.9°F22.7°C 68.8°F20.4°C 87% 1.3 mph N2.1 kmh N 3.8 mph6.1 kmh 30.01 in1016.3 mb 0.00 in0.0 mm 0.00 in0.0 mm 0.17 in4.3 mm
10:56 AM 72.8°F22.7°C 69.4°F20.8°C 89% 1.3 mph N2.1 kmh N 3.8 mph6.1 kmh 30.01 in1016.3 mb 0.00 in0.0 mm 0.00 in0.0 mm 0.17 in4.3 mm
10:51 AM 73.0°F22.8°C 69.2°F20.7°C 88% 2.1 mph N3.4 kmh N 3.8 mph6.1 kmh 30.01 in1016.3 mb 0.00 in0.0 mm 0.00 in0.0 mm 0.17 in4.3 mm
10:46 AM 73.1°F22.8°C 69.3°F20.7°C 88% Calm Calm 3.0 mph4.8 kmh 30.01 in1016.3 mb 0.00 in0.0 mm 0.00 in0.0 mm 0.17 in4.3 mm
10:41 AM 73.0°F22.8°C 68.9°F20.5°C 87% Calm Calm 3.0 mph4.8 kmh 30.01 in1016.3 mb 0.00 in0.0 mm 0.00 in0.0 mm 0.17 in4.3 mm
10:36 AM 72.9°F22.7°C 68.8°F20.4°C 87% 1.3 mph NW2.1 kmh NW 3.8 mph6.1 kmh 30.01 in1016.3 mb 0.00 in0.0 mm 0.00 in0.0 mm 0.17 in4.3 mm
10:31 AM 72.7°F22.6°C 68.6°F20.3°C 87% Calm Calm 3.8 mph6.1 kmh 30.01 in1016.3 mb 0.00 in0.0 mm 0.00 in0.0 mm 0.17 in4.3 mm
10:26 AM 72.7°F22.6°C 68.6°F20.3°C 87% 1.3 mph NE2.1 kmh NE 2.0 mph3.2 kmh 30.01 in1016.3 mb 0.00 in0.0 mm 0.00 in0.0 mm 0.17 in4.3 mm
10:21 AM 72.6°F22.6°C 68.5°F20.3°C 87% 1.3 mph ENE2.1 kmh ENE 3.0 mph4.8 kmh 30.01 in1016.3 mb 0.00 in0.0 mm 0.00 in0.0 mm 0.17 in4.3 mm
10:16 AM 72.5°F22.5°C 68.1°F20.1°C 86% 1.3 mph ENE2.1 kmh ENE 3.8 mph6.1 kmh 30.02 in1016.6 mb 0.00 in0.0 mm 0.00 in0.0 mm 0.17 in4.3 mm
10:11 AM 72.5°F22.5°C 68.1°F20.1°C 86% Calm Calm 3.8 mph6.1 kmh 30.01 in1016.3 mb 0.00 in0.0 mm 0.00 in0.0 mm 0.17 in4.3 mm
10:06 AM 72.9°F22.7°C 69.1°F20.6°C 88% 1.3 mph NE2.1 kmh NE 1.3 mph2.1 kmh 30.02 in1016.6 mb 0.00 in0.0 mm 0.00 in0.0 mm 0.17 in4.3 mm
10:01 AM 72.9°F22.7°C 69.1°F20.6°C 88% 1.3 mph ENE2.1 kmh ENE 1.3 mph2.1 kmh 30.01 in1016.3 mb 0.00 in0.0 mm 0.00 in0.0 mm 0.17 in4.3 mm
09:56 AM 72.6°F22.6°C 69.2°F20.7°C 89% 1.3 mph SE2.1 kmh SE 1.3 mph2.1 kmh 30.01 in1016.3 mb 0.00 in0.0 mm 0.00 in0.0 mm 0.17 in4.3 mm
09:51 AM 72.2°F22.3°C 69.4°F20.8°C 91% Calm Calm 1.3 mph2.1 kmh 30.01 in1016.3 mb 0.00 in0.0 mm 0.00 in0.0 mm 0.17 in4.3 mm
09:46 AM 71.6°F22.0°C 68.5°F20.3°C 90% 1.3 mph SW2.1 kmh SW 1.3 mph2.1 kmh 30.01 in1016.3 mb 0.00 in0.0 mm 0.00 in0.0 mm 0.17 in4.3 mm
09:41 AM 71.3°F21.8°C 68.5°F20.3°C 91% 1.3 mph NNE2.1 kmh NNE 2.0 mph3.2 kmh 30.01 in1016.3 mb 0.00 in0.0 mm 0.00 in0.0 mm 0.17 in4.3 mm
09:36 AM 70.9°F21.6°C 68.1°F20.1°C 91% Calm Calm 2.5 mph4.0 kmh 30.01 in1016.3 mb 0.00 in0.0 mm 0.00 in0.0 mm 0.17 in4.3 mm
09:31 AM 70.8°F21.6°C 68.0°F20.0°C 91% 1.3 mph N2.1 kmh N 2.5 mph4.0 kmh 30.01 in1016.3 mb 0.00 in0.0 mm 0.00 in0.0 mm 0.17 in4.3 mm
09:26 AM 70.7°F21.5°C 67.9°F19.9°C 91% 1.5 mph ENE2.4 kmh ENE 2.5 mph4.0 kmh 30.01 in1016.3 mb 0.00 in0.0 mm 0.00 in0.0 mm 0.17 in4.3 mm
09:21 AM 70.6°F21.4°C 68.1°F20.1°C 92% Calm Calm 2.5 mph4.0 kmh 30.01 in1016.3 mb 0.00 in0.0 mm 0.00 in0.0 mm 0.17 in4.3 mm
09:16 AM 70.5°F21.4°C 68.0°F20.0°C 92% 1.3 mph NE2.1 kmh NE 2.5 mph4.0 kmh 30.01 in1016.3 mb 0.00 in0.0 mm 0.00 in0.0 mm 0.17 in4.3 mm
09:11 AM 70.4°F21.3°C 68.2°F20.1°C 93% 1.3 mph NE2.1 kmh NE 2.5 mph4.0 kmh 30.01 in1016.3 mb 0.00 in0.0 mm 0.00 in0.0 mm 0.17 in4.3 mm
09:06 AM 70.2°F21.2°C 68.1°F20.1°C 93% 1.5 mph NE2.4 kmh NE 2.5 mph4.0 kmh 30.00 in1015.9 mb 0.00 in0.0 mm 0.00 in0.0 mm 0.17 in4.3 mm
09:01 AM 70.1°F21.2°C 68.3°F20.2°C 94% 1.3 mph NE2.1 kmh NE 2.5 mph4.0 kmh 30.00 in1015.9 mb 0.00 in0.0 mm 0.00 in0.0 mm 0.17 in4.3 mm
08:56 AM 69.9°F21.1°C 68.1°F20.1°C 94% 1.6 mph NE2.6 kmh NE 2.5 mph4.0 kmh 30.00 in1015.9 mb 0.00 in0.0 mm 0.00 in0.0 mm 0.17 in4.3 mm
08:51 AM 69.9°F21.1°C 68.1°F20.1°C 94% Calm Calm 3.0 mph4.8 kmh 30.00 in1015.9 mb 0.00 in0.0 mm 0.00 in0.0 mm 0.17 in4.3 mm
08:46 AM 69.7°F20.9°C 67.9°F19.9°C 94% 1.5 mph NE2.4 kmh NE 3.0 mph4.8 kmh 30.00 in1015.9 mb 0.00 in0.0 mm 0.00 in0.0 mm 0.17 in4.3 mm
08:41 AM 69.4°F20.8°C 67.6°F19.8°C 94% Calm Calm 3.8 mph6.1 kmh 30.00 in1015.9 mb 0.00 in0.0 mm 0.00 in0.0 mm 0.17 in4.3 mm
08:36 AM 69.3°F20.7°C 67.5°F19.7°C 94% 1.9 mph NE3.1 kmh NE 3.8 mph6.1 kmh 30.00 in1015.9 mb 0.00 in0.0 mm 0.00 in0.0 mm 0.17 in4.3 mm
08:31 AM 69.2°F20.7°C 67.4°F19.7°C 94% 1.5 mph NE2.4 kmh NE 2.5 mph4.0 kmh 30.00 in1015.9 mb 0.00 in0.0 mm 0.00 in0.0 mm 0.17 in4.3 mm
08:26 AM 69.1°F20.6°C 67.3°F19.6°C 94% 1.3 mph NE2.1 kmh NE 2.5 mph4.0 kmh 30.00 in1015.9 mb 0.00 in0.0 mm 0.00 in0.0 mm 0.17 in4.3 mm
08:21 AM 69.0°F20.6°C 67.5°F19.7°C 95% 1.3 mph NE2.1 kmh NE 2.5 mph4.0 kmh 30.00 in1015.9 mb 0.00 in0.0 mm 0.00 in0.0 mm 0.17 in4.3 mm
08:16 AM 68.8°F20.4°C 67.3°F19.6°C 95% 1.7 mph NE2.7 kmh NE 2.5 mph4.0 kmh 30.00 in1015.9 mb 0.00 in0.0 mm 0.00 in0.0 mm 0.17 in4.3 mm
08:11 AM 68.8°F20.4°C 67.3°F19.6°C 95% 1.3 mph NE2.1 kmh NE 2.5 mph4.0 kmh 30.00 in1015.9 mb 0.00 in0.0 mm 0.00 in0.0 mm 0.17 in4.3 mm
08:06 AM 68.8°F20.4°C 67.3°F19.6°C 95% 1.3 mph NE2.1 kmh NE 2.5 mph4.0 kmh 30.00 in1015.9 mb 0.00 in0.0 mm 0.00 in0.0 mm 0.17 in4.3 mm
08:01 AM 68.7°F20.4°C 67.2°F19.6°C 95% Calm Calm 2.5 mph4.0 kmh 30.00 in1015.9 mb 0.00 in0.0 mm 0.00 in0.0 mm 0.17 in4.3 mm
07:56 AM 68.6°F20.3°C 67.1°F19.5°C 95% 1.6 mph ENE2.6 kmh ENE 3.8 mph6.1 kmh 30.00 in1015.9 mb 0.00 in0.0 mm 0.00 in0.0 mm 0.17 in4.3 mm
07:51 AM 68.6°F20.3°C 67.1°F19.5°C 95% 1.4 mph ENE2.3 kmh ENE 3.8 mph6.1 kmh 30.00 in1015.9 mb 0.00 in0.0 mm 0.00 in0.0 mm 0.17 in4.3 mm
07:46 AM 68.6°F20.3°C 67.1°F19.5°C 95% 2.1 mph NE3.4 kmh NE 2.5 mph4.0 kmh 29.99 in1015.6 mb 0.00 in0.0 mm 0.00 in0.0 mm 0.17 in4.3 mm
07:41 AM 68.5°F20.3°C 67.0°F19.4°C 95% Calm Calm 2.0 mph3.2 kmh 29.99 in1015.6 mb 0.00 in0.0 mm 0.00 in0.0 mm 0.17 in4.3 mm
07:36 AM 68.3°F20.2°C 66.8°F19.3°C 95% 1.3 mph NE2.1 kmh NE 2.5 mph4.0 kmh 29.99 in1015.6 mb 0.00 in0.0 mm 0.00 in0.0 mm 0.17 in4.3 mm
07:31 AM 68.3°F20.2°C 66.8°F19.3°C 95% 1.3 mph NE2.1 kmh NE 3.0 mph4.8 kmh 29.99 in1015.6 mb 0.00 in0.0 mm 0.00 in0.0 mm 0.17 in4.3 mm
07:26 AM 68.2°F20.1°C 66.7°F19.3°C 95% 1.3 mph NE2.1 kmh NE 3.8 mph6.1 kmh 29.99 in1015.6 mb 0.00 in0.0 mm 0.00 in0.0 mm 0.17 in4.3 mm
07:21 AM 68.0°F20.0°C 66.5°F19.2°C 95% 1.5 mph NE2.4 kmh NE 3.8 mph6.1 kmh 29.99 in1015.6 mb 0.00 in0.0 mm 0.00 in0.0 mm 0.17 in4.3 mm
07:16 AM 67.9°F19.9°C 66.4°F19.1°C 95% 1.3 mph NE2.1 kmh NE 2.5 mph4.0 kmh 29.99 in1015.6 mb 0.00 in0.0 mm 0.00 in0.0 mm 0.17 in4.3 mm
07:11 AM 67.8°F19.9°C 66.3°F19.1°C 95% 1.3 mph NE2.1 kmh NE 2.5 mph4.0 kmh 29.99 in1015.6 mb 0.00 in0.0 mm 0.00 in0.0 mm 0.17 in4.3 mm
07:06 AM 67.8°F19.9°C 66.3°F19.1°C 95% Calm Calm 2.0 mph3.2 kmh 29.99 in1015.6 mb 0.00 in0.0 mm 0.00 in0.0 mm 0.17 in4.3 mm
07:00 AM 67.7°F19.8°C 66.2°F19.0°C 95% Calm Calm 2.0 mph3.2 kmh 29.98 in1015.2 mb 0.00 in0.0 mm 0.00 in0.0 mm 0.17 in4.3 mm
06:55 AM 67.6°F19.8°C 66.1°F18.9°C 95% 1.3 mph ENE2.1 kmh ENE 2.5 mph4.0 kmh 29.98 in1015.2 mb 0.01 in0.3 mm 0.00 in0.0 mm 0.17 in4.3 mm
06:50 AM 67.6°F19.8°C 66.1°F18.9°C 95% 1.5 mph ENE2.4 kmh ENE 2.5 mph4.0 kmh 29.98 in1015.2 mb 0.01 in0.3 mm 0.00 in0.0 mm 0.17 in4.3 mm
06:45 AM 67.6°F19.8°C 66.1°F18.9°C 95% Calm Calm 1.3 mph2.1 kmh 29.98 in1015.2 mb 0.01 in0.3 mm 0.00 in0.0 mm 0.17 in4.3 mm
06:40 AM 67.6°F19.8°C 66.1°F18.9°C 95% 1.3 mph SW2.1 kmh SW 1.3 mph2.1 kmh 29.98 in1015.2 mb 0.01 in0.3 mm 0.00 in0.0 mm 0.17 in4.3 mm
06:35 AM 67.5°F19.7°C 66.0°F18.9°C 95% 1.3 mph SW2.1 kmh SW 1.3 mph2.1 kmh 29.98 in1015.2 mb 0.01 in0.3 mm 0.00 in0.0 mm 0.17 in4.3 mm
06:30 AM 67.6°F19.8°C 66.1°F18.9°C 95% Calm Calm -- 29.98 in1015.2 mb 0.01 in0.3 mm 0.00 in0.0 mm 0.17 in4.3 mm
06:25 AM 67.6°F19.8°C 66.1°F18.9°C 95% Calm Calm -- 29.98 in1015.2 mb 0.01 in0.3 mm 0.00 in0.0 mm 0.17 in4.3 mm
06:20 AM 67.5°F19.7°C 66.0°F18.9°C 95% Calm Calm -- 29.98 in1015.2 mb 0.01 in0.3 mm 0.00 in0.0 mm 0.17 in4.3 mm
06:15 AM 67.5°F19.7°C 66.0°F18.9°C 95% Calm Calm -- 29.98 in1015.2 mb 0.01 in0.3 mm 0.00 in0.0 mm 0.17 in4.3 mm
06:10 AM 67.6°F19.8°C 66.1°F18.9°C 95% Calm Calm -- 29.98 in1015.2 mb 0.01 in0.3 mm 0.00 in0.0 mm 0.17 in4.3 mm
06:05 AM 67.6°F19.8°C 66.1°F18.9°C 95% Calm Calm -- 29.98 in1015.2 mb 0.01 in0.3 mm 0.00 in0.0 mm 0.17 in4.3 mm
06:00 AM 67.6°F19.8°C 66.1°F18.9°C 95% Calm Calm -- 29.98 in1015.2 mb 0.01 in0.3 mm 0.01 in0.3 mm 0.17 in4.3 mm
05:55 AM 67.6°F19.8°C 66.1°F18.9°C 95% Calm Calm -- 29.98 in1015.2 mb 0.00 in0.0 mm 0.00 in0.0 mm 0.16 in4.1 mm
05:50 AM 67.6°F19.8°C 66.1°F18.9°C 95% Calm Calm -- 29.98 in1015.2 mb 0.00 in0.0 mm 0.00 in0.0 mm 0.16 in4.1 mm
05:45 AM 67.6°F19.8°C 66.1°F18.9°C 95% Calm Calm -- 29.98 in1015.2 mb 0.00 in0.0 mm 0.00 in0.0 mm 0.16 in4.1 mm
05:40 AM 67.7°F19.8°C 66.2°F19.0°C 95% Calm Calm -- 29.98 in1015.2 mb 0.00 in0.0 mm 0.00 in0.0 mm 0.16 in4.1 mm
05:35 AM 67.7°F19.8°C 66.2°F19.0°C 95% Calm Calm -- 29.98 in1015.2 mb 0.00 in0.0 mm 0.00 in0.0 mm 0.16 in4.1 mm
05:30 AM 67.7°F19.8°C 66.2°F19.0°C 95% Calm Calm -- 29.98 in1015.2 mb 0.00 in0.0 mm 0.00 in0.0 mm 0.16 in4.1 mm
05:25 AM 67.7°F19.8°C 66.2°F19.0°C 95% Calm Calm -- 29.98 in1015.2 mb 0.00 in0.0 mm 0.00 in0.0 mm 0.16 in4.1 mm
05:20 AM 67.8°F19.9°C 66.3°F19.1°C 95% Calm Calm 1.0 mph1.6 kmh 29.98 in1015.2 mb 0.00 in0.0 mm 0.00 in0.0 mm 0.16 in4.1 mm
05:15 AM 67.8°F19.9°C 66.3°F19.1°C 95% Calm Calm 1.0 mph1.6 kmh 29.98 in1015.2 mb 0.00 in0.0 mm 0.00 in0.0 mm 0.16 in4.1 mm
05:10 AM 67.8°F19.9°C 66.3°F19.1°C 95% Calm Calm 1.3 mph2.1 kmh 29.98 in1015.2 mb 0.00 in0.0 mm 0.00 in0.0 mm 0.16 in4.1 mm
05:05 AM 67.7°F19.8°C 66.2°F19.0°C 95% Calm Calm 1.3 mph2.1 kmh 29.98 in1015.2 mb 0.00 in0.0 mm 0.00 in0.0 mm 0.16 in4.1 mm
05:00 AM 67.7°F19.8°C 66.2°F19.0°C 95% Calm Calm -- 29.98 in1015.2 mb 0.00 in0.0 mm 0.00 in0.0 mm 0.16 in4.1 mm
04:55 AM 67.6°F19.8°C 66.1°F18.9°C 95% Calm Calm -- 29.98 in1015.2 mb 0.00 in0.0 mm 0.00 in0.0 mm 0.16 in4.1 mm
04:50 AM 67.6°F19.8°C 66.1°F18.9°C 95% Calm Calm -- 29.98 in1015.2 mb 0.00 in0.0 mm 0.00 in0.0 mm 0.16 in4.1 mm
04:45 AM 67.6°F19.8°C 66.1°F18.9°C 95% Calm Calm -- 29.98 in1015.2 mb 0.00 in0.0 mm 0.00 in0.0 mm 0.16 in4.1 mm
04:40 AM 67.6°F19.8°C 66.1°F18.9°C 95% Calm Calm -- 29.98 in1015.2 mb 0.00 in0.0 mm 0.00 in0.0 mm 0.16 in4.1 mm
04:35 AM 67.6°F19.8°C 66.1°F18.9°C 95% Calm Calm -- 29.98 in1015.2 mb 0.00 in0.0 mm 0.00 in0.0 mm 0.16 in4.1 mm
04:30 AM 67.6°F19.8°C 66.1°F18.9°C 95% Calm Calm -- 29.98 in1015.2 mb 0.00 in0.0 mm 0.00 in0.0 mm 0.16 in4.1 mm
04:25 AM 67.6°F19.8°C 66.1°F18.9°C 95% Calm Calm -- 29.98 in1015.2 mb 0.00 in0.0 mm 0.00 in0.0 mm 0.16 in4.1 mm
04:20 AM 67.6°F19.8°C 66.1°F18.9°C 95% Calm Calm -- 29.98 in1015.2 mb 0.00 in0.0 mm 0.00 in0.0 mm 0.16 in4.1 mm
04:15 AM 67.7°F19.8°C 66.2°F19.0°C 95% Calm Calm -- 29.97 in1014.9 mb 0.00 in0.0 mm 0.00 in0.0 mm 0.16 in4.1 mm
04:10 AM 67.6°F19.8°C 66.1°F18.9°C 95% Calm Calm -- 29.97 in1014.9 mb 0.00 in0.0 mm 0.00 in0.0 mm 0.16 in4.1 mm
04:05 AM 67.6°F19.8°C 66.1°F18.9°C 95% Calm Calm -- 29.97 in1014.9 mb 0.00 in0.0 mm 0.00 in0.0 mm 0.16 in4.1 mm
04:00 AM 67.6°F19.8°C 66.1°F18.9°C 95% Calm Calm -- 29.97 in1014.9 mb 0.00 in0.0 mm 0.00 in0.0 mm 0.16 in4.1 mm
03:55 AM 67.6°F19.8°C 66.1°F18.9°C 95% Calm Calm 1.0 mph1.6 kmh 29.97 in1014.9 mb 0.00 in0.0 mm 0.00 in0.0 mm 0.16 in4.1 mm
03:50 AM 67.6°F19.8°C 66.1°F18.9°C 95% Calm Calm 1.0 mph1.6 kmh 29.97 in1014.9 mb 0.00 in0.0 mm 0.00 in0.0 mm 0.16 in4.1 mm
03:45 AM 67.6°F19.8°C 65.8°F18.8°C 94% Calm Calm 1.3 mph2.1 kmh 29.95 in1014.2 mb 0.00 in0.0 mm 0.00 in0.0 mm 0.16 in4.1 mm
03:40 AM 67.7°F19.8°C 65.9°F18.8°C 94% 1.3 mph SW2.1 kmh SW 1.3 mph2.1 kmh 29.97 in1014.9 mb 0.00 in0.0 mm 0.00 in0.0 mm 0.16 in4.1 mm
03:35 AM 67.7°F19.8°C 65.9°F18.8°C 94% Calm Calm 1.0 mph1.6 kmh 29.97 in1014.9 mb 0.00 in0.0 mm 0.00 in0.0 mm 0.16 in4.1 mm
03:30 AM 67.7°F19.8°C 65.9°F18.8°C 94% Calm Calm 1.0 mph1.6 kmh 29.97 in1014.9 mb 0.00 in0.0 mm 0.00 in0.0 mm 0.16 in4.1 mm
03:25 AM 67.7°F19.8°C 65.9°F18.8°C 94% Calm Calm 1.3 mph2.1 kmh 29.97 in1014.9 mb 0.00 in0.0 mm 0.00 in0.0 mm 0.16 in4.1 mm
03:20 AM 67.7°F19.8°C 65.9°F18.8°C 94% Calm Calm 1.3 mph2.1 kmh 29.97 in1014.9 mb 0.00 in0.0 mm 0.00 in0.0 mm 0.16 in4.1 mm
03:15 AM 67.7°F19.8°C 65.9°F18.8°C 94% Calm Calm 1.3 mph2.1 kmh 29.97 in1014.9 mb 0.00 in0.0 mm 0.00 in0.0 mm 0.16 in4.1 mm
03:10 AM 67.8°F19.9°C 66.0°F18.9°C 94% 1.3 mph SW2.1 kmh SW 2.0 mph3.2 kmh 29.97 in1014.9 mb 0.00 in0.0 mm 0.00 in0.0 mm 0.16 in4.1 mm
03:05 AM 67.7°F19.8°C 65.9°F18.8°C 94% 1.3 mph SW2.1 kmh SW 2.0 mph3.2 kmh 29.97 in1014.9 mb 0.00 in0.0 mm 0.00 in0.0 mm 0.16 in4.1 mm
03:00 AM 67.7°F19.8°C 65.9°F18.8°C 94% Calm Calm 2.5 mph4.0 kmh 29.97 in1014.9 mb 0.00 in0.0 mm 0.00 in0.0 mm 0.16 in4.1 mm
02:55 AM 67.7°F19.8°C 65.9°F18.8°C 94% 1.3 mph SW2.1 kmh SW 2.5 mph4.0 kmh 29.97 in1014.9 mb 0.00 in0.0 mm 0.00 in0.0 mm 0.16 in4.1 mm
02:50 AM 67.7°F19.8°C 65.9°F18.8°C 94% 1.3 mph SSE2.1 kmh SSE 2.0 mph3.2 kmh 29.97 in1014.9 mb 0.01 in0.3 mm 0.00 in0.0 mm 0.16 in4.1 mm
02:45 AM 67.7°F19.8°C 65.9°F18.8°C 94% Calm Calm 2.5 mph4.0 kmh 29.97 in1014.9 mb 0.02 in0.5 mm 0.00 in0.0 mm 0.16 in4.1 mm
02:39 AM 67.6°F19.8°C 65.8°F18.8°C 94% 1.5 mph S2.4 kmh S 2.5 mph4.0 kmh 29.97 in1014.9 mb 0.02 in0.5 mm 0.00 in0.0 mm 0.16 in4.1 mm
02:35 AM 67.5°F19.7°C 65.7°F18.7°C 94% 1.3 mph S2.1 kmh S 2.5 mph4.0 kmh 29.97 in1014.9 mb 0.03 in0.8 mm 0.00 in0.0 mm 0.16 in4.1 mm
02:29 AM 67.5°F19.7°C 65.7°F18.7°C 94% 1.4 mph SW2.3 kmh SW 3.0 mph4.8 kmh 29.97 in1014.9 mb 0.03 in0.8 mm 0.00 in0.0 mm 0.16 in4.1 mm
02:24 AM 67.5°F19.7°C 65.7°F18.7°C 94% 1.3 mph W2.1 kmh W 3.0 mph4.8 kmh 29.97 in1014.9 mb 0.04 in1.0 mm 0.00 in0.0 mm 0.16 in4.1 mm
02:19 AM 67.4°F19.7°C 65.6°F18.7°C 94% 1.7 mph SW2.7 kmh SW 3.0 mph4.8 kmh 29.97 in1014.9 mb 0.04 in1.0 mm 0.00 in0.0 mm 0.16 in4.1 mm
02:14 AM 67.4°F19.7°C 65.6°F18.7°C 94% 1.3 mph SW2.1 kmh SW 3.0 mph4.8 kmh 29.97 in1014.9 mb 0.04 in1.0 mm 0.00 in0.0 mm 0.16 in4.1 mm
02:09 AM 67.3°F19.6°C 65.5°F18.6°C 94% 1.6 mph SW2.6 kmh SW 3.0 mph4.8 kmh 29.97 in1014.9 mb 0.05 in1.3 mm 0.00 in0.0 mm 0.16 in4.1 mm
02:04 AM 67.4°F19.7°C 65.6°F18.7°C 94% 1.3 mph S2.1 kmh S 2.5 mph4.0 kmh 29.97 in1014.9 mb 0.07 in1.8 mm 0.00 in0.0 mm 0.16 in4.1 mm
01:59 AM 67.4°F19.7°C 65.6°F18.7°C 94% Calm Calm 1.3 mph2.1 kmh 29.97 in1014.9 mb 0.11 in2.8 mm 0.00 in0.0 mm 0.16 in4.1 mm
01:54 AM 67.4°F19.7°C 65.6°F18.7°C 94% Calm Calm 1.3 mph2.1 kmh 29.97 in1014.9 mb 0.13 in3.3 mm 0.12 in3.0 mm 0.16 in4.1 mm
01:49 AM 67.5°F19.7°C 65.7°F18.7°C 94% Calm Calm 1.3 mph2.1 kmh 29.97 in1014.9 mb 0.12 in3.0 mm 0.00 in0.0 mm 0.15 in3.8 mm
01:44 AM 67.6°F19.8°C 65.8°F18.8°C 94% Calm Calm 1.3 mph2.1 kmh 29.97 in1014.9 mb 0.12 in3.0 mm 0.00 in0.0 mm 0.14 in3.6 mm
01:39 AM 67.6°F19.8°C 65.5°F18.6°C 93% Calm Calm 1.3 mph2.1 kmh 29.97 in1014.9 mb 0.13 in3.3 mm 0.00 in0.0 mm 0.14 in3.6 mm
01:34 AM 67.7°F19.8°C 65.6°F18.7°C 93% Calm Calm 1.3 mph2.1 kmh 29.97 in1014.9 mb 0.13 in3.3 mm 0.00 in0.0 mm 0.13 in3.3 mm
01:29 AM 67.8°F19.9°C 65.7°F18.7°C 93% 1.3 mph NE2.1 kmh NE 2.0 mph3.2 kmh 29.97 in1014.9 mb 0.13 in3.3 mm 0.12 in3.0 mm 0.13 in3.3 mm
01:24 AM 67.9°F19.9°C 65.8°F18.8°C 93% Calm Calm 3.0 mph4.8 kmh 29.97 in1014.9 mb 0.12 in3.0 mm 0.00 in0.0 mm 0.12 in3.0 mm
01:19 AM 68.1°F20.1°C 66.0°F18.9°C 93% 1.3 mph NE2.1 kmh NE 4.0 mph6.4 kmh 29.97 in1014.9 mb 0.12 in3.0 mm 0.00 in0.0 mm 0.12 in3.0 mm
01:14 AM 68.4°F20.2°C 66.3°F19.1°C 93% 1.3 mph SE2.1 kmh SE 6.0 mph9.7 kmh 29.97 in1014.9 mb 0.12 in3.0 mm 0.12 in3.0 mm 0.12 in3.0 mm
01:09 AM 68.6°F20.3°C 66.5°F19.2°C 93% 1.5 mph ENE2.4 kmh ENE 7.0 mph11.3 kmh 29.97 in1014.9 mb 0.11 in2.8 mm 0.36 in9.1 mm 0.11 in2.8 mm
01:04 AM 68.8°F20.4°C 67.0°F19.4°C 94% 2.2 mph ESE3.5 kmh ESE 8.0 mph12.9 kmh 29.98 in1015.2 mb 0.08 in2.0 mm 0.03 in0.8 mm 0.08 in2.0 mm
12:59 AM 68.8°F20.4°C 67.0°F19.4°C 94% 3.4 mph S5.5 kmh S 8.8 mph14.2 kmh 29.98 in1015.2 mb 0.05 in1.3 mm 0.24 in6.1 mm 0.05 in1.3 mm
12:54 AM 68.7°F20.4°C 66.9°F19.4°C 94% 2.8 mph SE4.5 kmh SE 8.8 mph14.2 kmh 29.97 in1014.9 mb 0.03 in0.8 mm 0.00 in0.0 mm 0.03 in0.8 mm
12:49 AM 68.6°F20.3°C 66.8°F19.3°C 94% 2.5 mph S4.0 kmh S 5.0 mph8.0 kmh 29.97 in1014.9 mb 0.03 in0.8 mm 0.12 in3.0 mm 0.03 in0.8 mm
12:44 AM 68.5°F20.3°C 66.7°F19.3°C 94% 2.1 mph S3.4 kmh S 10.0 mph16.1 kmh 29.97 in1014.9 mb 0.02 in0.5 mm 0.12 in3.0 mm 0.02 in0.5 mm
12:39 AM 68.5°F20.3°C 66.7°F19.3°C 94% 2.5 mph S4.0 kmh S 10.0 mph16.1 kmh 29.97 in1014.9 mb 0.01 in0.3 mm 0.12 in3.0 mm 0.01 in0.3 mm
12:34 AM 68.4°F20.2°C 66.6°F19.2°C 94% 1.4 mph SSE2.3 kmh SSE 12.5 mph20.1 kmh 29.97 in1014.9 mb 0.00 in0.0 mm 0.00 in0.0 mm 0.00 in0.0 mm
12:29 AM 68.3°F20.2°C 66.5°F19.2°C 94% 3.4 mph S5.5 kmh S 12.5 mph20.1 kmh 29.97 in1014.9 mb 0.00 in0.0 mm 0.00 in0.0 mm 0.00 in0.0 mm
12:24 AM 68.3°F20.2°C 66.5°F19.2°C 94% 1.3 mph SE2.1 kmh SE 1.3 mph2.1 kmh 29.95 in1014.2 mb 0.00 in0.0 mm 0.00 in0.0 mm 0.00 in0.0 mm
12:19 AM 68.3°F20.2°C 66.5°F19.2°C 94% Calm Calm -- 29.95 in1014.2 mb 0.00 in0.0 mm 0.00 in0.0 mm 0.00 in0.0 mm
12:14 AM 68.2°F20.1°C 66.4°F19.1°C 94% Calm Calm -- 29.95 in1014.2 mb 0.00 in0.0 mm 0.00 in0.0 mm 0.00 in0.0 mm
12:09 AM 68.1°F20.1°C 66.3°F19.1°C 94% Calm Calm -- 29.95 in1014.2 mb 0.00 in0.0 mm 0.00 in0.0 mm 0.00 in0.0 mm
12:04 AM 68.0°F20.0°C 66.2°F19.0°C 94% Calm Calm -- 29.95 in1014.2 mb 0.00 in0.0 mm 0.00 in0.0 mm 0.00 in0.0 mm